Time;durP1;ratioP1;P1;durP2;ratioP2;P2;SDS_P1;SDS_P2;PMS_P1;PMS_P2;Temp;Humidity;BMP_temperature;BMP_pressure;BME280_temperature;BME280_humidity;BME280_pressure;Samples;Min_cycle;Max_cycle;Signal;HPM_P1;HPM_P2
2023/06/16 00:01:23;;;;;;;1.95;1.80;;;;;;;13.16;100.00;97613.56;1700022;75;751301;-70
2023/06/16 00:03:53;;;;;;;1.95;1.65;;;;;;;13.10;100.00;97615.53;1709389;75;674727;-74
2023/06/16 00:06:29;;;;;;;2.90;1.65;;;;;;;13.09;100.00;97614.78;1701021;75;744767;-69
2023/06/16 00:09:01;;;;;;;2.20;1.70;;;;;;;13.08;100.00;97615.28;1702912;75;672951;-70
2023/06/16 00:11:33;;;;;;;2.50;1.70;;;;;;;13.06;100.00;97612.25;1709187;75;672801;-70
2023/06/16 00:14:06;;;;;;;2.10;1.90;;;;;;;13.04;100.00;97606.53;1702762;75;671319;-72
2023/06/16 00:16:36;;;;;;;2.05;1.80;;;;;;;12.98;100.00;97609.22;1710773;75;675538;-71
2023/06/16 00:19:06;;;;;;;3.30;1.60;;;;;;;12.97;100.00;97613.97;1704107;75;675581;-72
2023/06/16 00:21:38;;;;;;;1.80;1.60;;;;;;;12.92;100.00;97600.22;1711332;75;676026;-70
2023/06/16 00:24:09;;;;;;;1.60;1.40;;;;;;;12.92;100.00;97600.97;1702897;75;686434;-72
2023/06/16 00:26:40;;;;;;;1.90;1.70;;;;;;;12.82;100.00;97607.16;1710874;75;681925;-73
2023/06/16 00:29:12;;;;;;;2.30;2.10;;;;;;;12.82;100.00;97612.66;1702144;75;670938;-72
2023/06/16 00:31:43;;;;;;;2.10;1.90;;;;;;;12.73;100.00;97603.38;1708789;75;671944;-69
2023/06/16 00:34:13;;;;;;;2.10;1.90;;;;;;;12.69;100.00;97597.34;1701724;75;682939;-72
2023/06/16 00:36:43;;;;;;;2.20;1.80;;;;;;;12.64;100.00;97600.81;1709827;75;676290;-70
2023/06/16 00:39:13;;;;;;;1.90;1.80;;;;;;;12.56;100.00;97597.78;1701072;75;677802;-72
2023/06/16 00:41:43;;;;;;;1.90;1.80;;;;;;;12.61;100.00;97598.31;1709013;75;669583;-70
2023/06/16 00:44:16;;;;;;;2.75;2.00;;;;;;;12.60;100.00;97591.31;1701064;75;678233;-71
2023/06/16 00:46:47;;;;;;;1.90;1.70;;;;;;;12.57;100.00;97585.56;1709822;75;675317;-72
2023/06/16 00:52:49;;;;;;;2.60;2.10;;;;;;;12.48;100.00;97572.03;1697897;75;741484;-71
2023/06/16 00:55:21;;;;;;;2.20;2.00;;;;;;;12.29;100.00;97585.41;1707596;75;711893;-72
2023/06/16 00:57:52;;;;;;;3.05;2.75;;;;;;;12.27;100.00;97581.63;1700403;75;751805;-70
2023/06/16 01:00:25;;;;;;;2.80;2.40;;;;;;;12.36;100.00;97578.69;1708852;75;666485;-71
2023/06/16 01:02:56;;;;;;;2.75;2.55;;;;;;;12.34;100.00;97578.44;1700595;75;739346;-70
2023/06/16 01:05:28;;;;;;;2.70;2.50;;;;;;;12.24;100.00;97577.09;1709333;75;667040;-71
2023/06/16 01:08:12;;;;;;;3.05;2.75;;;;;;;12.11;100.00;97580.28;1700690;75;743986;-71
2023/06/16 01:10:55;;;;;;;3.50;2.90;;;;;;;12.24;100.00;97571.63;1700718;75;670798;-71
2023/06/16 01:13:34;;;;;;;3.20;2.50;;;;;;;12.25;100.00;97578.63;1709321;75;670020;-72
2023/06/16 01:16:10;;;;;;;2.20;2.00;;;;;;;12.21;100.00;97570.59;1699584;75;724005;-69
2023/06/16 01:18:43;;;;;;;2.90;2.60;;;;;;;12.15;100.00;97572.56;1701448;75;670718;-70
2023/06/16 01:21:25;;;;;;;2.40;2.20;;;;;;;12.16;100.00;97571.31;1708746;75;673204;-71
2023/06/16 01:24:08;;;;;;;2.50;2.25;;;;;;;12.12;100.00;97568.81;1698444;67;914203;-70
2023/06/16 01:26:44;;;;;;;2.30;2.10;;;;;;;12.06;100.00;97564.53;1708701;75;677736;-70
2023/06/16 01:29:15;;;;;;;2.05;1.90;;;;;;;12.07;100.00;97560.53;1700209;75;749230;-71
2023/06/16 01:31:46;;;;;;;2.40;2.20;;;;;;;12.03;100.00;97551.78;1708190;75;669154;-70
2023/06/16 01:34:17;;;;;;;2.35;2.10;;;;;;;11.98;100.00;97564.22;1700475;75;748264;-74
2023/06/16 01:36:49;;;;;;;2.15;1.95;;;;;;;11.93;100.00;97562.19;1709371;75;672435;-71
2023/06/16 01:39:24;;;;;;;2.30;2.10;;;;;;;11.92;100.00;97550.44;1700724;75;751165;-70
2023/06/16 01:41:55;;;;;;;2.20;2.00;;;;;;;11.93;100.00;97551.97;1709341;75;673928;-69
2023/06/16 01:44:26;;;;;;;1.90;1.70;;;;;;;11.89;100.00;97561.66;1700474;75;748055;-73
2023/06/16 01:46:57;;;;;;;2.10;1.90;;;;;;;11.82;100.00;97551.84;1709433;75;673164;-70
2023/06/16 01:49:28;;;;;;;2.00;1.80;;;;;;;11.85;100.00;97550.84;1699716;75;741615;-71
2023/06/16 01:51:58;;;;;;;2.30;1.90;;;;;;;11.75;100.00;97551.53;1708032;75;732756;-70
2023/06/16 01:54:31;;;;;;;2.30;2.10;;;;;;;11.73;100.00;97546.53;1700476;75;746202;-69
2023/06/16 01:57:01;;;;;;;2.60;2.40;;;;;;;11.68;100.00;97549.97;1709402;75;664837;-70
2023/06/16 01:59:31;;;;;;;3.00;2.70;;;;;;;11.57;100.00;97545.16;1699951;75;750935;-70
2023/06/16 02:02:08;;;;;;;2.50;2.30;;;;;;;11.58;100.00;97552.13;1708749;75;671261;-70
2023/06/16 02:04:41;;;;;;;2.50;2.30;;;;;;;11.57;100.00;97545.16;1700499;75;758695;-71
2023/06/16 02:07:17;;;;;;;2.40;2.20;;;;;;;11.52;100.00;97543.88;1708958;75;677322;-72
2023/06/16 02:09:52;;;;;;;2.50;2.30;;;;;;;11.56;100.00;97549.13;1698008;75;764032;-70
2023/06/16 02:12:23;;;;;;;2.50;2.20;;;;;;;11.57;100.00;97545.16;1701740;75;673577;-69
2023/06/16 02:14:54;;;;;;;2.30;2.10;;;;;;;11.59;100.00;97547.41;1708999;75;671063;-71
2023/06/16 02:17:27;;;;;;;2.20;2.00;;;;;;;11.52;100.00;97551.34;1700589;75;675443;-71
2023/06/16 02:19:58;;;;;;;2.05;1.80;;;;;;;11.43;100.00;97538.53;1708683;75;672235;-70
2023/06/16 02:22:28;;;;;;;2.10;1.80;;;;;;;11.47;100.00;97549.28;1700222;75;683000;-69
2023/06/16 02:25:01;;;;;;;1.70;1.60;;;;;;;11.42;100.00;97545.25;1709405;75;671146;-70
2023/06/16 02:27:31;;;;;;;2.00;1.80;;;;;;;11.42;100.00;97537.03;1701234;75;675754;-74
2023/06/16 02:30:01;;;;;;;2.20;2.00;;;;;;;11.36;100.00;97533.50;1708326;75;694053;-69
2023/06/16 02:32:31;;;;;;;2.80;2.20;;;;;;;11.35;100.00;97539.44;1701188;75;675872;-69
2023/06/16 02:35:04;;;;;;;2.80;2.30;;;;;;;11.29;100.00;97540.16;1708400;75;683606;-72
2023/06/16 02:37:34;;;;;;;3.40;2.50;;;;;;;11.26;100.00;97538.38;1700933;75;677528;-73
2023/06/16 02:40:08;;;;;;;2.90;2.60;;;;;;;11.26;100.00;97535.63;1708795;75;673658;-71
2023/06/16 02:42:38;;;;;;;2.40;2.10;;;;;;;11.23;100.00;97546.81;1700784;75;677380;-72
2023/06/16 02:45:10;;;;;;;2.20;2.00;;;;;;;11.25;100.00;97538.84;1708938;75;668406;-70
2023/06/16 02:47:40;;;;;;;2.40;2.15;;;;;;;11.29;100.00;97537.41;1701091;75;675068;-69
2023/06/16 02:50:11;;;;;;;2.40;2.10;;;;;;;11.23;100.00;97535.84;1707981;75;681142;-70
2023/06/16 02:52:42;;;;;;;2.30;2.00;;;;;;;11.21;100.00;97546.56;1700964;75;673345;-69
2023/06/16 02:55:15;;;;;;;3.00;2.30;;;;;;;11.19;100.00;97546.28;1709358;75;676315;-72
2023/06/16 02:57:46;;;;;;;2.50;2.30;;;;;;;11.05;100.00;97545.88;1701483;75;682912;-72
2023/06/16 03:00:18;;;;;;;2.70;2.50;;;;;;;11.05;100.00;97548.63;1709246;75;670922;-70
2023/06/16 03:02:48;;;;;;;2.50;2.30;;;;;;;11.06;100.00;97544.66;1700258;75;749323;-69
2023/06/16 03:05:19;;;;;;;2.50;2.30;;;;;;;11.07;100.00;97546.16;1709556;75;710396;-71
2023/06/16 03:07:49;;;;;;;2.30;2.10;;;;;;;11.15;100.00;97549.22;1700367;75;744709;-74
2023/06/16 03:10:21;;;;;;;1.85;1.75;;;;;;;11.03;100.00;97547.59;1709474;75;674686;-71
2023/06/16 03:12:52;;;;;;;2.40;2.20;;;;;;;11.13;100.00;97550.94;1699550;75;756031;-71
2023/06/16 03:15:23;;;;;;;2.50;2.25;;;;;;;11.05;100.00;97561.56;1708775;75;680297;-72
2023/06/16 03:17:53;;;;;;;2.35;2.15;;;;;;;11.01;100.00;97550.06;1700638;75;746493;-73
2023/06/16 03:20:24;;;;;;;2.30;2.00;;;;;;;11.02;100.00;97549.59;1707683;75;708227;-69
2023/06/16 03:22:54;;;;;;;2.70;2.30;;;;;;;11.08;100.00;97550.38;1700327;75;740758;-70
2023/06/16 03:25:28;;;;;;;3.65;3.35;;;;;;;11.00;100.00;97549.31;1709549;75;671728;-70
2023/06/16 03:27:58;;;;;;;2.90;2.60;;;;;;;11.06;100.00;97544.66;1699819;75;744760;-70
2023/06/16 03:30:28;;;;;;;2.25;2.05;;;;;;;11.04;100.00;97546.34;1708605;75;679241;-72
2023/06/16 03:32:58;;;;;;;2.00;1.85;;;;;;;11.12;100.00;97552.94;1700051;75;753362;-74
2023/06/16 03:35:28;;;;;;;2.10;1.90;;;;;;;11.11;100.00;97561.63;1709252;75;677882;-70
2023/06/16 03:37:59;;;;;;;2.15;1.95;;;;;;;11.14;100.00;97558.69;1700072;75;749238;-71
2023/06/16 03:40:31;;;;;;;2.45;1.90;;;;;;;11.18;100.00;97556.47;1709133;75;675301;-70
2023/06/16 03:43:02;;;;;;;1.80;1.70;;;;;;;11.19;100.00;97549.75;1699695;75;737243;-71
2023/06/16 03:45:32;;;;;;;2.40;1.90;;;;;;;11.21;100.00;97550.03;1709402;75;680527;-71
2023/06/16 03:48:02;;;;;;;2.05;1.85;;;;;;;11.20;100.00;97553.25;1700498;75;742625;-73
2023/06/16 03:50:33;;;;;;;2.80;2.30;;;;;;;11.17;100.00;97559.72;1708565;75;673398;-72
2023/06/16 03:53:03;;;;;;;3.55;2.20;;;;;;;11.22;100.00;97564.50;1698637;75;841142;-72
2023/06/16 03:55:36;;;;;;;2.65;2.30;;;;;;;11.26;100.00;97567.78;1709004;75;718196;-69
2023/06/16 03:58:07;;;;;;;2.20;2.00;;;;;;;11.34;100.00;97560.63;1700337;75;743649;-72
2023/06/16 04:00:37;;;;;;;2.00;1.80;;;;;;;11.34;100.00;97566.09;1708287;75;682964;-69
2023/06/16 04:03:08;;;;;;;2.10;1.90;;;;;;;11.36;100.00;97560.16;1700425;75;755076;-71
2023/06/16 04:05:38;;;;;;;1.80;1.60;;;;;;;11.37;100.00;97559.66;1708489;75;692246;-70
2023/06/16 04:08:09;;;;;;;2.85;1.95;;;;;;;11.41;100.00;97559.44;1700817;75;752945;-71
2023/06/16 04:10:41;;;;;;;2.10;1.90;;;;;;;11.46;100.00;97559.50;1708858;75;682908;-71
2023/06/16 04:13:12;;;;;;;1.75;1.65;;;;;;;11.49;100.00;97558.53;1700280;75;772195;-71
2023/06/16 04:15:42;;;;;;;2.15;1.90;;;;;;;11.56;100.00;97560.09;1710722;75;670818;-70
2023/06/16 04:18:12;;;;;;;2.55;2.35;;;;;;;11.57;100.00;97558.09;1702177;75;752187;-72
2023/06/16 04:20:42;;;;;;;2.70;2.50;;;;;;;11.68;100.00;97555.47;1710766;75;703855;-71
2023/06/16 04:23:12;;;;;;;5.10;3.95;;;;;;;11.71;100.00;97560.75;1702496;75;741858;-74
2023/06/16 04:25:45;;;;;;;8.20;5.80;;;;;;;11.77;100.00;97558.03;1711476;75;670401;-71
2023/06/16 04:28:17;;;;;;;8.80;7.10;;;;;;;11.79;100.00;97554.81;1698638;75;898846;-70
2023/06/16 04:30:49;;;;;;;9.00;7.60;;;;;;;11.87;100.00;97556.63;1709719;75;668930;-72
2023/06/16 04:33:22;;;;;;;7.15;6.45;;;;;;;11.93;100.00;97548.47;1700662;75;746584;-70
2023/06/16 04:35:53;;;;;;;6.00;5.30;;;;;;;11.99;100.00;97554.00;1709677;75;669870;-71
2023/06/16 04:38:25;;;;;;;4.80;4.00;;;;;;;12.10;100.00;97554.09;1700682;75;745143;-71
2023/06/16 04:40:58;;;;;;;3.60;3.20;;;;;;;12.15;100.00;97547.88;1708009;75;676923;-71
2023/06/16 04:43:28;;;;;;;3.85;3.45;;;;;;;12.21;100.00;97545.16;1699783;75;747708;-72
2023/06/16 04:45:58;;;;;;;3.05;2.75;;;;;;;12.30;100.00;97553.94;1709263;75;667978;-75
2023/06/16 04:48:29;;;;;;;2.60;2.40;;;;;;;12.38;100.00;97546.00;1699751;75;742557;-73
2023/06/16 04:50:59;;;;;;;2.45;2.05;;;;;;;12.42;100.00;97546.53;1708386;75;704275;-71
2023/06/16 04:53:30;;;;;;;2.60;2.40;;;;;;;12.51;100.00;97542.84;1700515;75;753507;-71
2023/06/16 04:56:03;;;;;;;2.20;2.00;;;;;;;12.58;100.00;97551.38;1708898;75;670844;-70
2023/06/16 04:58:33;;;;;;;2.35;2.15;;;;;;;12.67;100.00;97555.16;1700742;75;740747;-71
2023/06/16 05:01:03;;;;;;;1.70;1.60;;;;;;;12.76;100.00;97546.69;1708796;75;680885;-72
2023/06/16 05:03:34;;;;;;;2.05;1.85;;;;;;;12.90;100.00;97547.75;1699561;75;732579;-72
2023/06/16 05:06:04;;;;;;;3.90;2.25;;;;;;;12.99;100.00;97553.78;1709233;75;668968;-71
2023/06/16 05:08:34;;;;;;;2.30;2.10;;;;;;;13.09;100.00;97548.06;1699931;75;750883;-70
2023/06/16 05:11:07;;;;;;;2.15;1.95;;;;;;;13.21;100.00;97544.84;1708899;75;672258;-70
2023/06/16 05:13:37;;;;;;;1.80;1.70;;;;;;;13.37;100.00;97548.16;1700639;75;746555;-73
2023/06/16 05:16:08;;;;;;;3.45;3.10;;;;;;;13.45;100.00;97549.19;1709654;75;669123;-70
2023/06/16 05:18:38;;;;;;;4.80;3.75;;;;;;;13.56;100.00;97546.44;1700531;75;739091;-71
2023/06/16 05:21:08;;;;;;;3.40;3.10;;;;;;;13.73;100.00;97551.19;1709357;75;674845;-69
2023/06/16 05:23:38;;;;;;;2.60;2.40;;;;;;;13.92;100.00;97560.47;1700768;75;724840;-70
2023/06/16 05:26:12;;;;;;;4.00;3.65;;;;;;;14.02;100.00;97555.44;1708728;75;687291;-70
2023/06/16 05:28:42;;;;;;;4.55;3.60;;;;;;;14.13;100.00;97555.44;1700331;75;754353;-69
2023/06/16 05:31:13;;;;;;;4.90;4.10;;;;;;;14.21;100.00;97550.19;1709170;75;668324;-71
2023/06/16 05:33:43;;;;;;;4.25;3.85;;;;;;;14.39;100.00;97557.16;1700463;75;743537;-71
2023/06/16 05:36:13;;;;;;;4.05;3.65;;;;;;;14.58;100.00;97557.41;1709833;75;673383;-74
2023/06/16 05:38:43;;;;;;;3.40;3.00;;;;;;;14.74;100.00;97550.31;1700887;75;750273;-70
2023/06/16 05:41:16;;;;;;;3.95;3.45;;;;;;;14.91;100.00;97556.53;1708738;75;681006;-73
2023/06/16 05:43:46;;;;;;;5.20;3.95;;;;;;;15.06;100.00;97550.72;1699513;75;733842;-70
2023/06/16 05:46:16;;;;;;;4.20;3.30;;;;;;;15.21;100.00;97555.91;1709868;75;676356;-70
2023/06/16 05:48:47;;;;;;;3.95;3.55;;;;;;;15.33;100.00;97551.81;1700631;75;747279;-70
2023/06/16 05:51:20;;;;;;;5.10;4.10;;;;;;;15.41;100.00;97552.75;1708968;75;672034;-69
2023/06/16 05:53:50;;;;;;;4.60;4.05;;;;;;;15.54;100.00;97557.72;1700181;75;745658;-71
2023/06/16 05:56:23;;;;;;;4.50;4.05;;;;;;;15.67;100.00;97557.84;1709915;75;676373;-70
2023/06/16 05:58:53;;;;;;;4.35;3.85;;;;;;;15.81;100.00;97560.81;1700840;75;745797;-69
2023/06/16 06:01:24;;;;;;;5.05;3.80;;;;;;;15.98;100.00;97564.19;1708343;75;676751;-69
2023/06/16 06:03:54;;;;;;;4.55;3.60;;;;;;;16.16;100.00;97554.47;1699937;75;753585;-70
2023/06/16 06:06:25;;;;;;;4.50;3.90;;;;;;;16.24;100.00;97568.47;1709895;75;671680;-70
2023/06/16 06:08:55;;;;;;;5.35;3.50;;;;;;;16.44;100.00;97567.28;1700714;75;759454;-71
2023/06/16 06:11:28;;;;;;;4.00;3.30;;;;;;;16.60;97.37;97567.09;1708082;75;722681;-74
2023/06/16 06:13:58;;;;;;;5.20;3.60;;;;;;;16.85;93.86;97567.09;1698506;75;760135;-69
2023/06/16 06:16:29;;;;;;;7.85;3.70;;;;;;;17.03;90.89;97563.63;1708564;75;688337;-72
2023/06/16 06:18:59;;;;;;;4.35;3.65;;;;;;;17.22;89.73;97568.41;1700092;75;746578;-71
2023/06/16 06:21:29;;;;;;;7.25;4.75;;;;;;;17.27;82.33;97569.59;1708961;75;670537;-72
2023/06/16 06:24:02;;;;;;;6.10;4.65;;;;;;;17.44;81.00;97570.13;1700618;75;746860;-71
2023/06/16 06:26:38;;;;;;;5.35;4.30;;;;;;;17.57;84.81;97569.44;1709200;75;684527;-71
2023/06/16 06:29:08;;;;;;;6.10;3.80;;;;;;;17.46;82.77;97571.09;1699907;75;751382;-73
2023/06/16 06:31:39;;;;;;;6.60;4.50;;;;;;;17.62;79.48;97566.59;1708680;75;673457;-72
2023/06/16 06:34:09;;;;;;;5.00;3.65;;;;;;;17.85;81.56;97580.88;1699781;75;747335;-72
2023/06/16 06:36:39;;;;;;;5.10;4.25;;;;;;;18.00;83.34;97574.09;1709984;75;670787;-71
2023/06/16 06:39:10;;;;;;;5.65;4.15;;;;;;;18.10;77.54;97581.47;1700870;75;747382;-73
2023/06/16 06:41:43;;;;;;;5.60;4.20;;;;;;;18.18;74.95;97573.28;1708904;75;672181;-73
2023/06/16 06:44:13;;;;;;;5.05;3.65;;;;;;;18.08;72.28;97577.75;1700358;75;772364;-72
2023/06/16 06:46:43;;;;;;;6.20;3.95;;;;;;;18.22;73.97;97575.75;1709312;75;674904;-74
2023/06/16 06:49:13;;;;;;;5.00;3.30;;;;;;;18.35;71.99;97580.56;1701288;75;739932;-72
2023/06/16 06:51:43;;;;;;;5.35;3.40;;;;;;;18.43;70.70;97578.66;1708771;75;671911;-75
2023/06/16 06:54:13;;;;;;;4.50;3.50;;;;;;;18.34;70.01;97577.06;1700524;75;751662;-73
2023/06/16 06:56:46;;;;;;;4.90;3.70;;;;;;;18.46;70.25;97577.59;1706033;75;939619;-73
2023/06/16 06:59:17;;;;;;;4.95;3.70;;;;;;;18.63;70.04;97580.06;1700772;75;755183;-72
2023/06/16 07:01:47;;;;;;;5.00;3.60;;;;;;;18.49;69.27;97580.03;1708232;75;676738;-73
2023/06/16 07:04:17;;;;;;;4.75;3.65;;;;;;;18.62;69.51;97576.56;1701137;75;742634;-74
2023/06/16 07:06:47;;;;;;;3.90;3.40;;;;;;;18.84;70.36;97572.63;1710155;75;675871;-72
2023/06/16 07:09:18;;;;;;;6.85;3.70;;;;;;;19.02;71.72;97581.34;1701401;75;739243;-71
2023/06/16 07:11:51;;;;;;;6.40;4.70;;;;;;;18.83;71.00;97579.47;1709227;75;674946;-75
2023/06/16 07:14:21;;;;;;;8.90;4.30;;;;;;;19.07;70.65;97572.94;1700076;75;746215;-76
2023/06/16 07:16:51;;;;;;;5.75;3.80;;;;;;;19.04;70.80;97568.44;1709444;75;672616;-74
2023/06/16 07:19:23;;;;;;;5.40;3.25;;;;;;;19.24;70.99;97572.59;1700478;75;751287;-74
2023/06/16 07:21:53;;;;;;;3.70;2.70;;;;;;;19.41;70.39;97575.00;1709781;75;676108;-71
2023/06/16 07:24:24;;;;;;;5.60;3.50;;;;;;;19.44;70.10;97573.91;1700686;75;753187;-76
2023/06/16 07:26:59;;;;;;;6.60;4.10;;;;;;;19.44;67.14;97567.63;1709849;75;672687;-73
2023/06/16 07:29:30;;;;;;;5.65;3.55;;;;;;;19.59;67.84;97568.50;1698642;75;756963;-72
2023/06/16 07:32:00;;;;;;;7.80;5.00;;;;;;;19.32;67.35;97561.56;1709227;75;667773;-73
2023/06/16 07:34:30;;;;;;;6.30;4.40;;;;;;;19.28;66.11;97561.13;1685806;75;1942148;-72
2023/06/16 07:37:00;;;;;;;5.40;4.55;;;;;;;19.47;62.97;97572.09;1709297;75;678129;-74
2023/06/16 07:39:31;;;;;;;5.00;3.80;;;;;;;19.76;64.14;97561.84;1700454;75;744995;-72
2023/06/16 07:42:03;;;;;;;5.20;4.05;;;;;;;19.85;67.13;97564.16;1709349;75;671261;-71
2023/06/16 07:44:33;;;;;;;7.25;3.75;;;;;;;20.02;64.70;97563.03;1700617;75;747006;-73
2023/06/16 07:47:04;;;;;;;5.35;4.00;;;;;;;20.08;63.36;97558.78;1708542;75;675253;-75
2023/06/16 07:49:34;;;;;;;4.50;3.20;;;;;;;20.33;62.45;97555.66;1701443;75;744284;-73
2023/06/16 07:52:04;;;;;;;5.85;3.90;;;;;;;20.24;59.74;97559.66;1710069;75;670637;-71
2023/06/16 07:54:34;;;;;;;4.50;3.55;;;;;;;20.07;58.52;97557.31;1701142;75;752968;-72
2023/06/16 07:57:08;;;;;;;4.30;3.20;;;;;;;20.39;55.43;97553.47;1709858;75;686909;-74
2023/06/16 07:59:38;;;;;;;3.40;2.60;;;;;;;20.76;54.99;97541.13;1700038;75;754620;-73
2023/06/16 08:02:09;;;;;;;3.30;2.60;;;;;;;20.92;54.87;97550.28;1708297;75;688638;-75
2023/06/16 08:04:39;;;;;;;4.65;3.55;;;;;;;20.56;53.97;97539.16;1700850;75;753356;-74
2023/06/16 08:07:10;;;;;;;3.40;2.90;;;;;;;20.95;54.46;97542.88;1709571;75;671068;-74
2023/06/16 08:09:40;;;;;;;4.60;3.20;;;;;;;20.87;53.02;97542.09;1699401;75;754779;-74
2023/06/16 08:12:14;;;;;;;4.00;2.80;;;;;;;21.21;54.87;97539.09;1709010;75;673158;-71
2023/06/16 08:14:44;;;;;;;5.30;3.40;;;;;;;21.12;55.03;97536.81;1700745;75;747878;-73
2023/06/16 08:17:15;;;;;;;4.85;2.80;;;;;;;20.95;51.95;97540.09;1709065;75;675720;-73
2023/06/16 08:19:45;;;;;;;3.75;2.80;;;;;;;21.20;53.51;97538.34;1700230;75;747064;-74
2023/06/16 08:22:16;;;;;;;4.80;3.80;;;;;;;21.04;53.22;97534.00;1709114;75;675621;-74
2023/06/16 08:24:46;;;;;;;4.10;3.00;;;;;;;20.91;52.04;97537.69;1700129;75;749897;-72
2023/06/16 08:27:20;;;;;;;4.35;3.20;;;;;;;21.21;53.18;97527.94;1709441;75;680772;-71
2023/06/16 08:29:50;;;;;;;3.80;2.95;;;;;;;21.64;52.41;97524.34;1700280;75;754160;-73
2023/06/16 08:32:20;;;;;;;3.05;2.75;;;;;;;21.37;49.82;97531.53;1709555;75;673278;-73
2023/06/16 08:34:50;;;;;;;2.90;2.50;;;;;;;21.62;51.85;97524.19;1700082;75;757356;-70
2023/06/16 08:37:22;;;;;;;3.60;3.05;;;;;;;21.89;51.47;97510.66;1708098;75;743832;-72
2023/06/16 08:39:52;;;;;;;3.90;3.35;;;;;;;21.88;50.34;97511.94;1700225;75;762965;-73
2023/06/16 08:42:25;;;;;;;4.20;3.25;;;;;;;21.87;50.38;97512.50;1709491;75;673397;-72
2023/06/16 08:44:56;;;;;;;3.95;3.15;;;;;;;21.62;50.92;97515.84;1700129;75;742075;-73
2023/06/16 08:47:28;;;;;;;3.60;2.80;;;;;;;21.98;50.30;97508.59;1708791;75;673514;-72
2023/06/16 08:49:59;;;;;;;3.75;2.85;;;;;;;21.84;50.90;97513.59;1699245;75;761387;-72
2023/06/16 08:52:30;;;;;;;6.20;3.10;;;;;;;22.05;49.38;97511.38;1709337;75;677727;-70
2023/06/16 08:55:03;;;;;;;3.20;2.55;;;;;;;22.41;52.17;97509.69;1700699;75;743310;-72
2023/06/16 08:57:39;;;;;;;3.30;2.30;;;;;;;22.73;50.47;97509.81;1709452;75;680499;-72
2023/06/16 09:00:15;;;;;;;3.10;2.40;;;;;;;23.06;49.88;97507.09;1700063;75;755402;-72
2023/06/16 09:02:48;;;;;;;4.20;3.40;;;;;;;21.96;48.62;97506.38;1701948;75;678974;-72
2023/06/16 09:05:22;;;;;;;3.30;2.70;;;;;;;22.71;48.18;97506.84;1709258;75;672291;-73
2023/06/16 09:07:52;;;;;;;2.70;2.30;;;;;;;23.08;48.32;97507.28;1701189;75;681815;-72
2023/06/16 09:10:23;;;;;;;2.90;2.40;;;;;;;22.92;48.28;97501.00;1708684;75;702974;-69
2023/06/16 09:13:03;;;;;;;3.95;2.70;;;;;;;23.41;46.90;97501.72;1701046;75;674184;-73
2023/06/16 09:15:36;;;;;;;4.00;2.90;;;;;;;23.04;47.97;97501.34;1710519;75;683449;-74
2023/06/16 09:18:09;;;;;;;3.75;2.90;;;;;;;22.95;48.12;97494.28;1702320;75;675809;-73
2023/06/16 09:20:51;;;;;;;3.20;2.90;;;;;;;23.09;47.14;97483.63;1709874;75;673522;-71
2023/06/16 09:23:31;;;;;;;4.15;3.30;;;;;;;22.45;46.75;97496.84;1699957;75;733346;-74
2023/06/16 09:26:01;;;;;;;5.10;3.00;;;;;;;22.74;46.39;97494.53;1701624;75;684430;-71
2023/06/16 09:28:43;;;;;;;3.20;2.70;;;;;;;22.94;47.43;97487.19;1708892;75;679177;-72
2023/06/16 09:31:15;;;;;;;4.20;3.30;;;;;;;22.74;47.10;97483.38;1700610;75;682469;-73
2023/06/16 09:33:46;;;;;;;4.30;3.10;;;;;;;22.60;46.33;97496.06;1709619;75;676287;-72
2023/06/16 09:36:29;;;;;;;3.30;2.90;;;;;;;22.33;46.51;97485.34;1701641;75;676822;-74
2023/06/16 09:38:59;;;;;;;3.60;2.80;;;;;;;22.55;45.94;97489.38;1701543;75;675155;-72
2023/06/16 09:41:30;;;;;;;3.50;3.00;;;;;;;22.96;46.45;97489.44;1708403;75;672461;-72
2023/06/16 09:44:07;;;;;;;5.80;3.00;;;;;;;22.66;45.96;97485.47;1701344;75;671757;-74
2023/06/16 09:46:39;;;;;;;4.00;3.30;;;;;;;23.06;45.42;97481.97;1708674;75;678051;-74
2023/06/16 09:49:09;;;;;;;4.25;3.00;;;;;;;22.99;44.56;97474.38;1701231;75;680163;-73
2023/06/16 09:51:41;;;;;;;3.70;3.00;;;;;;;23.60;42.94;97474.00;1708771;75;672103;-73
2023/06/16 09:54:13;;;;;;;2.90;2.30;;;;;;;23.88;42.69;97471.38;1701638;75;671137;-74
2023/06/16 09:56:44;;;;;;;3.05;2.10;;;;;;;23.98;42.31;97466.63;1709480;75;669662;-74
2023/06/16 09:59:18;;;;;;;2.80;1.80;;;;;;;24.18;43.68;97470.38;1701222;75;674215;-72
2023/06/16 10:01:50;;;;;;;4.00;2.90;;;;;;;24.30;44.13;97463.00;1708656;75;676022;-74
2023/06/16 10:04:21;;;;;;;2.80;2.30;;;;;;;24.66;43.54;97465.22;1700052;75;671470;-73
2023/06/16 10:07:00;;;;;;;5.70;4.70;;;;;;;24.79;41.31;97461.34;1708839;75;666939;-73
2023/06/16 10:09:38;;;;;;;3.90;3.15;;;;;;;24.64;41.08;97456.66;1700304;75;754563;-74
2023/06/16 10:12:12;;;;;;;3.60;2.70;;;;;;;24.93;41.39;97461.00;1700841;75;670581;-73
2023/06/16 10:14:46;;;;;;;5.80;3.30;;;;;;;24.58;42.56;97450.59;1708432;75;678474;-70
2023/06/16 10:17:19;;;;;;;3.90;3.20;;;;;;;24.55;42.11;97451.72;1700210;75;672107;-73
2023/06/16 10:19:54;;;;;;;4.90;3.80;;;;;;;24.28;42.53;97448.84;1709017;75;679162;-73
2023/06/16 10:22:25;;;;;;;5.10;4.00;;;;;;;23.62;42.26;97445.50;1701171;75;677015;-74
2023/06/16 10:24:56;;;;;;;4.70;3.50;;;;;;;24.50;42.88;97443.59;1708702;75;772589;-72
2023/06/16 10:27:26;;;;;;;4.20;3.45;;;;;;;24.21;40.93;97444.06;1701615;75;679170;-76
2023/06/16 10:30:02;;;;;;;3.50;2.90;;;;;;;24.93;40.96;97438.59;1709426;75;672820;-71
2023/06/16 10:32:32;;;;;;;3.05;2.50;;;;;;;25.24;41.72;97434.06;1699518;75;750593;-72
2023/06/16 10:35:03;;;;;;;2.60;2.10;;;;;;;25.39;42.38;97446.38;1709424;75;677893;-74
2023/06/16 10:37:34;;;;;;;3.40;2.35;;;;;;;25.37;41.87;97435.75;1700601;75;755238;-73
2023/06/16 10:40:09;;;;;;;4.40;2.60;;;;;;;25.53;41.98;97441.13;1709019;75;668793;-75
2023/06/16 10:42:42;;;;;;;2.90;2.30;;;;;;;26.09;40.86;97429.91;1701040;75;758899;-73
2023/06/16 10:45:32;;;;;;;2.60;2.00;;;;;;;25.89;38.51;97427.09;1710260;75;673201;-73
2023/06/16 10:48:04;;;;;;;2.40;1.90;;;;;;;25.93;38.45;97430.19;1701040;75;746503;-74
2023/06/16 10:50:43;;;;;;;1.60;1.20;;;;;;;26.00;38.17;97430.63;1709623;75;673681;-75
2023/06/16 10:53:17;;;;;;;1.55;1.40;;;;;;;26.06;38.85;97423.41;1700969;75;740492;-72
2023/06/16 10:55:48;;;;;;;1.95;1.80;;;;;;;25.99;39.00;97415.88;1709518;75;673116;-71
2023/06/16 10:58:29;;;;;;;2.65;2.00;;;;;;;25.82;38.92;97415.97;1700231;75;742728;-74
2023/06/16 11:01:24;;;;;;;3.90;3.20;;;;;;;24.73;38.43;97421.66;1701361;75;676420;-76
2023/06/16 11:04:07;;;;;;;3.90;3.30;;;;;;;24.95;40.08;97419.88;1700860;75;674392;-72
2023/06/16 11:07:11;;;;;;;3.30;2.70;;;;;;;25.68;39.64;97407.97;1709910;75;695238;-75
2023/06/16 11:09:41;;;;;;;3.85;2.50;;;;;;;25.90;37.64;97406.16;1700438;75;751146;-73
2023/06/16 11:12:13;;;;;;;3.85;3.00;;;;;;;25.62;36.82;97401.19;1709278;75;678727;-73
2023/06/16 11:14:43;;;;;;;2.70;2.40;;;;;;;26.66;38.66;97394.78;1700088;75;746824;-74
2023/06/16 11:17:16;;;;;;;3.30;2.25;;;;;;;26.67;38.00;97389.91;1710011;75;676674;-74
2023/06/16 11:19:46;;;;;;;2.85;2.35;;;;;;;26.84;37.72;97389.72;1699960;75;758172;-75
2023/06/16 11:22:16;;;;;;;3.40;2.70;;;;;;;26.18;38.12;97387.09;1709354;75;678233;-72
2023/06/16 11:24:47;;;;;;;4.65;2.70;;;;;;;26.39;36.11;97382.97;1700530;75;749143;-72
2023/06/16 11:27:17;;;;;;;3.60;2.30;;;;;;;26.55;37.34;97384.16;1710014;75;671640;-72
2023/06/16 11:29:47;;;;;;;3.65;2.10;;;;;;;25.97;38.37;97392.56;1698542;75;757694;-73
2023/06/16 11:32:22;;;;;;;3.50;2.35;;;;;;;25.76;38.92;97398.69;1709759;75;675645;-73
2023/06/16 11:34:56;;;;;;;2.95;1.95;;;;;;;25.57;40.21;97391.72;1701082;75;754215;-74
2023/06/16 11:37:44;;;;;;;4.80;3.60;;;;;;;24.33;47.19;97413.53;1709951;75;676686;-74
2023/06/16 11:40:15;;;;;;;5.80;3.30;;;;;;;23.29;50.51;97417.59;1700509;75;748075;-74
2023/06/16 11:42:45;;;;;;;5.10;3.00;;;;;;;23.85;56.99;97431.34;1709815;75;675493;-76
2023/06/16 11:45:15;;;;;;;2.70;2.20;;;;;;;23.58;60.41;97425.59;1700412;75;760563;-76
2023/06/16 11:47:48;;;;;;;6.00;3.65;;;;;;;22.49;53.01;97430.28;1709611;75;715707;-73